首页
METAR-TAF:

METAR-TAF

机场 :

温斯顿-塞勒姆, 北卡罗来纳州, 美国

纬度: 36-08-00N, 经度: 080-13-29W, 海拔: 295米

当前天气观测

该预报发布于44分钟前的07:54 UTC
风速5节,风向东转东北
温度 3°C
湿度 87%
气压 1017 hPa
能見度: 16.1公里
阴天层高于4400英尺

METAR: KINT 170754Z AUTO 07005KT 10SM OVC044 03/01 A3002 RMK AO2 SLP168 T00280006

时间: 03:38 (08:38 UTC)

预报

该预报发布于3小时和5分钟前的05:33 UTC
预报有效从17日的 06点(UTC)到 18日的 06点(UTC)
风速5节,风向东北
能見度: 10公里
阴天层高于5000英尺
从 17日的 1300点(UTC)
风速5节,风向东北
能見度: 10公里
阴天层高于4000英尺
小雨
从 17日的 1600点(UTC)
风速5节,风向东北
能見度: 4.8公里
阴天层高于700英尺
小雨
从 17日的 1900点(UTC)
风速5节,风向东北
能見度: 2.4公里
阴天层高于400英尺
小雨, 轻雾

TAF: KINT 170533Z 1706/1806 05005KT P6SM OVC050 FM171300 05005KT P6SM -RA OVC040 FM171600 05005KT 3SM -RA OVC007 FM171900 05005KT 1 1/2SM -RA BR OVC004

超过4000个机场的气象观测和天气预报(METAR&TAF报告)。

可查询的气象台以黄色和红色小点在地图上表示。

将鼠标移到小点上方,可查看气象台名称。

然后点击查看天气观测和预报。

如需切换地图:点击带黑十字的绿色按钮放大地图;点击带横线的绿色按钮缩小地图;或者点击绿色箭头查看邻近地区的地图。


METAR-TAF: